KNPA

Airport

Pensacola, Florida, USA
METAR KNPA 141141Z AUTO 09014KT 6SM -RA BR BKN009 OVC014 19/19 A2979 RMK AO2 CIG 007V012 P0000 T01890189 $
Observed Flight Rules
Dec-14 @ 11:41 UTC (43 minutes ago) Instrument Flight Rules
Wind Visibility Clouds Conditions
90° at 14 knots 6 miles
  • Broken at 900' AGL
  • Overcast at 1,400' AGL
  • Light Rain
  • Mist
Temperatures Readings Precipitation
Current 19°C / 66°F
Dewpoint 19°C / 66°F
Humidity 100%
Altimeter 29.79" Hg
Pressure 1009 hPa
Elevation 9
Current Rain 0.005
METAR KNPA 141141Z AUTO 09014KT 6SM -RA BR BKN009 OVC014 19/19 A2979 RMK AO2 CIG 007V012 P0000 T01890189 $
Observed Flight Rules
Dec-14 @ 11:41 UTC
(43 minutes ago)
IFR
Wind Visibility
90° at 14 knots 6 miles
Clouds
  • Broken at 900' AGL
  • Overcast at 1,400' AGL
Conditions
  • Light Rain
  • Mist
Temperature Dewpoint
19°C / 66°F 19°C / 66°F
Humidity Altimeter Pressure
100% 29.79" Hg 1009 hPa
Current Rain
0.005